createdAt,value
2023-04-15T00:01:13.492Z,32.00
2023-04-15T00:03:41.478Z,32.28
2023-04-15T00:06:09.869Z,31.93
2023-04-15T00:08:37.142Z,32.27
2023-04-15T00:11:06.119Z,32.24
2023-04-15T00:13:34.951Z,32.01
2023-04-15T00:16:02.469Z,32.39
2023-04-15T00:18:30.096Z,31.97
2023-04-15T00:20:57.516Z,32.23
2023-04-15T00:23:25.031Z,32.15
2023-04-15T00:25:52.390Z,32.72
2023-04-15T00:28:19.926Z,32.53
2023-04-15T00:30:49.227Z,32.51
2023-04-15T00:33:16.752Z,32.33
2023-04-15T00:35:44.174Z,32.51
2023-04-15T00:38:11.857Z,32.47
2023-04-15T00:40:39.376Z,32.17
2023-04-15T00:43:07.219Z,32.34
2023-04-15T00:45:34.619Z,32.25
2023-04-15T00:48:04.656Z,32.72
2023-04-15T00:50:32.204Z,32.70
2023-04-15T00:52:59.478Z,32.63
2023-04-15T00:55:27.005Z,32.71
2023-04-15T00:57:54.879Z,32.81
2023-04-15T01:00:22.909Z,33.07
2023-04-15T01:02:51.052Z,33.05
2023-04-15T01:05:20.608Z,33.06
2023-04-15T01:07:48.779Z,32.94
2023-04-15T01:10:16.410Z,32.50
2023-04-15T01:12:44.748Z,32.45
2023-04-15T01:15:12.246Z,32.74
2023-04-15T01:17:40.058Z,33.24
2023-04-15T01:20:12.457Z,33.18
2023-04-15T01:22:41.748Z,32.83
2023-04-15T01:25:13.233Z,32.71
2023-04-15T01:27:45.706Z,32.86
2023-04-15T01:30:13.276Z,32.69
2023-04-15T01:32:40.957Z,33.25
2023-04-15T01:35:27.255Z,33.26
2023-04-15T01:37:59.712Z,33.20
2023-04-15T01:40:26.959Z,32.79
2023-04-15T01:42:56.837Z,33.50
2023-04-15T01:45:25.935Z,33.37
2023-04-15T01:47:54.455Z,32.93
2023-04-15T01:50:23.065Z,32.88
2023-04-15T01:52:51.585Z,32.92
2023-04-15T01:55:20.291Z,33.31
2023-04-15T01:57:48.788Z,33.85
2023-04-15T02:00:18.750Z,33.80
2023-04-15T02:02:47.299Z,33.29
2023-04-15T02:05:16.319Z,33.27
2023-04-15T02:07:49.555Z,33.98
2023-04-15T02:10:18.560Z,33.43
2023-04-15T02:12:47.392Z,33.96
2023-04-15T02:15:15.961Z,33.98
2023-04-15T02:17:51.083Z,33.95
2023-04-15T02:20:21.592Z,33.40
2023-04-15T02:22:50.187Z,33.30
2023-04-15T02:25:19.167Z,33.60
2023-04-15T02:27:47.772Z,34.18
2023-04-15T02:30:18.852Z,34.17
2023-04-15T02:32:48.776Z,33.91
2023-04-15T02:35:19.975Z,33.78
2023-04-15T02:37:48.672Z,33.88
2023-04-15T02:40:19.562Z,33.87
2023-04-15T02:42:48.193Z,33.72
2023-04-15T02:45:20.494Z,34.30
2023-04-15T02:47:50.595Z,34.00
2023-04-15T02:50:19.392Z,34.08
2023-04-15T02:52:47.876Z,33.82
2023-04-15T02:55:18.177Z,34.50
2023-04-15T02:57:46.746Z,33.90
2023-04-15T03:00:16.380Z,34.30
2023-04-15T03:02:47.940Z,34.68
2023-04-15T03:05:18.046Z,34.88
2023-04-15T03:07:52.025Z,34.49
2023-04-15T03:10:21.689Z,34.80
2023-04-15T03:12:50.197Z,35.06
2023-04-15T03:15:21.444Z,34.25
2023-04-15T03:17:53.297Z,34.92
2023-04-15T03:20:23.648Z,34.52
2023-04-15T03:22:52.471Z,35.02
2023-04-15T03:25:22.975Z,34.78
2023-04-15T03:27:51.561Z,34.82
2023-04-15T03:30:20.149Z,34.80
2023-04-15T03:32:49.448Z,34.40
2023-04-15T03:35:18.158Z,34.34
2023-04-15T03:37:49.321Z,34.78
2023-04-15T03:40:17.881Z,34.54
2023-04-15T03:42:46.625Z,34.77
2023-04-15T03:45:15.312Z,35.42
2023-04-15T03:47:44.115Z,35.64
2023-04-15T03:50:12.773Z,35.71
2023-04-15T03:52:41.239Z,35.18
2023-04-15T03:55:11.405Z,34.91
2023-04-15T03:57:40.100Z,35.57
2023-04-15T04:00:13.098Z,35.50
2023-04-15T04:02:41.614Z,35.68
2023-04-15T04:05:10.850Z,35.86
2023-04-15T04:07:39.390Z,35.59
2023-04-15T04:10:08.780Z,35.04
2023-04-15T04:12:38.699Z,35.56
2023-04-15T04:15:08.468Z,35.00
2023-04-15T04:17:37.046Z,35.55
2023-04-15T04:20:06.876Z,34.84
2023-04-15T04:22:38.284Z,35.41
2023-04-15T04:25:08.752Z,35.33
2023-04-15T04:27:38.958Z,35.38
2023-04-15T04:30:09.182Z,35.27
2023-04-15T04:32:37.747Z,35.35
2023-04-15T04:35:07.306Z,35.30
2023-04-15T04:37:36.336Z,35.33
2023-04-15T04:40:05.976Z,34.82
2023-04-15T04:42:34.744Z,34.62
2023-04-15T04:45:05.314Z,34.86
2023-04-15T04:47:33.996Z,34.54
2023-04-15T04:50:02.813Z,34.98
2023-04-15T04:52:31.618Z,34.76
2023-04-15T04:55:00.050Z,34.31
2023-04-15T04:57:28.642Z,34.59
2023-04-15T04:59:57.722Z,34.69
2023-04-15T05:02:27.894Z,34.70
2023-04-15T05:04:56.950Z,34.01
2023-04-15T05:07:25.830Z,34.35
2023-04-15T05:09:54.217Z,34.33
2023-04-15T05:12:22.665Z,33.95
2023-04-15T05:14:51.528Z,34.17
2023-04-15T05:17:20.156Z,34.10
2023-04-15T05:19:50.304Z,33.99
2023-04-15T05:22:18.772Z,33.92
2023-04-15T05:24:47.254Z,33.80
2023-04-15T05:27:15.994Z,34.05
2023-04-15T05:29:44.744Z,33.80
2023-04-15T05:32:13.192Z,34.14
2023-04-15T05:34:41.976Z,33.55
2023-04-15T05:37:12.139Z,33.53
2023-04-15T05:39:40.652Z,33.88
2023-04-15T05:42:09.280Z,33.90
2023-04-15T05:44:37.744Z,33.92
2023-04-15T05:47:07.306Z,33.87
2023-04-15T05:49:36.287Z,33.63
2023-04-15T05:52:05.142Z,32.98
2023-04-15T05:54:35.155Z,33.52
2023-04-15T05:57:04.140Z,33.41
2023-04-15T05:59:32.869Z,33.07
2023-04-15T06:02:01.432Z,32.96
2023-04-15T06:04:30.560Z,32.83
2023-04-15T06:06:59.183Z,32.44
2023-04-15T06:09:29.008Z,32.77
2023-04-15T06:11:59.417Z,32.37
2023-04-15T06:14:27.872Z,32.23
2023-04-15T06:16:56.535Z,32.51
2023-04-15T06:19:25.718Z,32.32
2023-04-15T06:21:54.450Z,31.64
2023-04-15T06:24:23.130Z,31.94
2023-04-15T06:26:51.642Z,31.56
2023-04-15T06:29:21.542Z,31.73
2023-04-15T06:31:50.611Z,31.65
2023-04-15T06:34:19.222Z,31.86
2023-04-15T06:36:47.768Z,30.91
2023-04-15T06:39:16.355Z,31.47
2023-04-15T06:41:45.219Z,31.37
2023-04-15T06:44:14.150Z,31.06
2023-04-15T06:46:44.017Z,31.07
2023-04-15T06:49:12.581Z,30.26
2023-04-15T06:51:42.725Z,31.02
2023-04-15T06:54:11.288Z,30.87
2023-04-15T06:56:39.930Z,30.62
2023-04-15T06:59:08.787Z,30.40
2023-04-15T07:01:37.392Z,30.10
2023-04-15T07:04:07.762Z,29.95
2023-04-15T07:06:36.468Z,30.13
2023-04-15T07:09:05.837Z,30.39
2023-04-15T07:11:34.485Z,29.81
2023-04-15T07:14:03.009Z,29.81
2023-04-15T07:16:31.540Z,29.12
2023-04-15T07:19:00.656Z,28.50
2023-04-15T07:21:30.741Z,28.85
2023-04-15T07:23:59.280Z,28.91
2023-04-15T07:26:28.083Z,28.18
2023-04-15T07:28:56.880Z,28.73
2023-04-15T07:31:25.797Z,27.61
2023-04-15T07:33:54.280Z,28.29
2023-04-15T07:36:22.939Z,27.51
2023-04-15T07:38:52.879Z,27.87
2023-04-15T07:41:21.916Z,27.89
2023-04-15T07:43:50.789Z,27.89
2023-04-15T07:46:19.364Z,27.28
2023-04-15T07:48:48.259Z,27.43
2023-04-15T07:51:17.902Z,27.17
2023-04-15T07:53:46.686Z,26.91
2023-04-15T07:56:16.771Z,26.61
2023-04-15T07:58:45.298Z,27.31
2023-04-15T08:01:13.990Z,27.13
2023-04-15T08:03:43.258Z,27.02
2023-04-15T08:06:12.526Z,26.95
2023-04-15T08:08:41.740Z,26.06
2023-04-15T08:11:10.254Z,26.42
2023-04-15T08:13:40.140Z,26.79
2023-04-15T08:16:19.080Z,26.83
2023-04-15T08:18:47.828Z,26.39
2023-04-15T08:21:16.927Z,26.02
2023-04-15T08:23:46.625Z,25.75
2023-04-15T08:26:15.270Z,25.93
2023-04-15T08:28:46.126Z,25.27
2023-04-15T08:31:16.417Z,25.74
2023-04-15T08:33:45.966Z,25.07
2023-04-15T08:36:15.034Z,25.15
2023-04-15T08:38:45.079Z,25.58
2023-04-15T08:41:26.291Z,26.08
2023-04-15T08:43:59.130Z,26.10
2023-04-15T08:46:28.352Z,25.71
2023-04-15T08:48:58.471Z,25.78
2023-04-15T08:51:27.367Z,25.69
2023-04-15T08:53:55.883Z,25.21
2023-04-15T08:56:27.009Z,25.51
2023-04-15T08:58:58.020Z,25.44
2023-04-15T09:01:27.014Z,25.29
2023-04-15T09:03:57.311Z,24.93
2023-04-15T09:06:26.330Z,24.94
2023-04-15T09:08:55.125Z,24.65
2023-04-15T09:11:24.868Z,24.68
2023-04-15T09:13:53.454Z,25.04
2023-04-15T09:16:23.230Z,24.74
2023-04-15T09:18:52.725Z,24.80
2023-04-15T09:21:22.348Z,25.04
2023-04-15T09:23:58.315Z,25.11
2023-04-15T09:26:34.771Z,24.10
2023-04-15T09:29:06.087Z,24.36
2023-04-15T09:31:36.919Z,24.40
2023-04-15T09:34:06.333Z,24.55
2023-04-15T09:36:54.753Z,23.99
2023-04-15T09:39:23.618Z,24.00
2023-04-15T09:42:06.861Z,23.96
2023-04-15T09:44:35.891Z,24.07
2023-04-15T09:47:06.491Z,24.24
2023-04-15T09:49:35.169Z,24.21
2023-04-15T09:52:06.115Z,23.95
2023-04-15T09:54:37.687Z,23.96
2023-04-15T09:57:07.410Z,23.94
2023-04-15T09:59:36.304Z,24.08
2023-04-15T10:02:07.725Z,24.12
2023-04-15T10:04:38.674Z,23.61
2023-04-15T10:07:08.789Z,23.75
2023-04-15T10:09:38.975Z,23.14
2023-04-15T10:12:07.561Z,23.26
2023-04-15T10:14:38.815Z,22.65
2023-04-15T10:17:12.445Z,22.83
2023-04-15T10:19:41.903Z,22.59
2023-04-15T10:22:10.911Z,22.63
2023-04-15T10:24:40.549Z,22.65
2023-04-15T10:27:09.724Z,22.52
2023-04-15T10:29:39.103Z,22.39
2023-04-15T10:32:11.057Z,22.72
2023-04-15T10:34:40.766Z,22.62
2023-04-15T10:37:11.787Z,22.41
2023-04-15T10:39:43.342Z,22.08
2023-04-15T10:42:13.277Z,22.18
2023-04-15T10:44:44.034Z,22.82
2023-04-15T10:47:15.609Z,22.19
2023-04-15T10:49:46.283Z,21.83
2023-04-15T10:52:16.702Z,21.53
2023-04-15T10:54:45.416Z,21.53
2023-04-15T10:57:22.957Z,21.29
2023-04-15T11:00:04.836Z,21.18
2023-04-15T11:02:42.615Z,21.58
2023-04-15T11:05:12.156Z,21.02
2023-04-15T11:07:53.114Z,21.04
2023-04-15T11:10:53.379Z,20.83
2023-04-15T11:13:28.628Z,20.89
2023-04-15T11:16:03.122Z,20.96
2023-04-15T11:18:35.141Z,21.26
2023-04-15T11:21:06.507Z,21.12
2023-04-15T11:23:38.482Z,20.75
2023-04-15T11:26:10.067Z,21.22
2023-04-15T11:28:41.603Z,21.37
2023-04-15T11:31:12.961Z,20.88
2023-04-15T11:33:56.842Z,21.35
2023-04-15T11:36:30.492Z,21.38
2023-04-15T11:39:00.368Z,20.96
2023-04-15T11:41:29.975Z,20.88
2023-04-15T11:43:59.373Z,20.82
2023-04-15T11:46:34.125Z,21.20
2023-04-15T11:49:05.529Z,20.91
2023-04-15T11:51:35.966Z,21.55
2023-04-15T11:54:05.034Z,20.77
2023-04-15T11:56:33.805Z,21.17
2023-04-15T11:59:02.616Z,21.27
2023-04-15T12:01:35.560Z,20.63
2023-04-15T12:04:12.427Z,20.69
2023-04-15T12:06:41.769Z,19.97
2023-04-15T12:09:12.750Z,20.33
2023-04-15T12:11:44.499Z,20.33
2023-04-15T12:14:17.874Z,20.67
2023-04-15T12:16:51.712Z,20.21
2023-04-15T12:19:26.387Z,20.76
2023-04-15T12:22:00.797Z,20.65
2023-04-15T12:24:33.366Z,20.68
2023-04-15T12:27:06.642Z,20.27
2023-04-15T12:29:36.864Z,20.68
2023-04-15T12:32:07.679Z,20.64
2023-04-15T12:34:39.471Z,20.50
2023-04-15T12:37:12.738Z,20.70
2023-04-15T12:39:44.137Z,21.06
2023-04-15T12:42:13.340Z,20.43
2023-04-15T12:44:41.742Z,20.50
2023-04-15T12:47:11.375Z,20.74
2023-04-15T12:49:41.884Z,20.49
2023-04-15T12:52:10.906Z,21.22
2023-04-15T12:54:40.483Z,21.18
2023-04-15T12:57:09.356Z,21.41
2023-04-15T12:59:38.011Z,21.37
2023-04-15T13:02:06.697Z,21.19
2023-04-15T13:04:37.114Z,21.13
2023-04-15T13:07:07.281Z,20.71
2023-04-15T13:09:35.724Z,20.94
2023-04-15T13:12:05.854Z,20.91
2023-04-15T13:14:34.375Z,21.27
2023-04-15T13:17:04.748Z,21.18
2023-04-15T13:19:33.452Z,21.32
2023-04-15T13:22:02.273Z,21.53
2023-04-15T13:24:32.448Z,21.65
2023-04-15T13:27:01.162Z,21.11
2023-04-15T13:29:29.670Z,21.14
2023-04-15T13:31:58.568Z,21.68
2023-04-15T13:34:27.351Z,20.92
2023-04-15T13:36:55.933Z,20.84
2023-04-15T13:39:24.774Z,20.85
2023-04-15T13:41:54.906Z,20.59
2023-04-15T13:44:23.505Z,20.77
2023-04-15T13:46:52.399Z,20.86
2023-04-15T13:49:21.104Z,20.96
2023-04-15T13:51:49.519Z,21.28
2023-04-15T13:54:18.239Z,21.41
2023-04-15T13:56:47.334Z,21.05
2023-04-15T13:59:17.330Z,21.63
2023-04-15T14:01:45.725Z,21.34
2023-04-15T14:04:15.036Z,22.04
2023-04-15T14:06:43.905Z,21.27
2023-04-15T14:09:12.605Z,21.48
2023-04-15T14:11:41.184Z,21.99
2023-04-15T14:14:09.893Z,21.78
2023-04-15T14:16:40.105Z,22.07
2023-04-15T14:19:08.980Z,21.67
2023-04-15T14:21:37.687Z,21.57
2023-04-15T14:24:07.149Z,21.78
2023-04-15T14:26:35.905Z,21.38
2023-04-15T14:29:04.732Z,21.41
2023-04-15T14:31:33.707Z,21.45
2023-04-15T14:34:04.205Z,21.76
2023-04-15T14:36:33.904Z,21.68
2023-04-15T14:39:01.673Z,21.35
2023-04-15T14:41:29.285Z,21.74
2023-04-15T14:43:56.870Z,21.67
2023-04-15T14:46:24.409Z,21.45
2023-04-15T14:48:52.436Z,21.50
2023-04-15T14:51:21.260Z,21.47
2023-04-15T14:53:48.745Z,21.57
2023-04-15T14:56:16.328Z,21.67
2023-04-15T14:58:43.726Z,21.26
2023-04-15T15:01:11.205Z,21.32
2023-04-15T15:03:39.408Z,21.30
2023-04-15T15:06:06.966Z,21.60
2023-04-15T15:08:37.129Z,21.87
2023-04-15T15:11:04.905Z,22.13
2023-04-15T15:13:32.391Z,21.86
2023-04-15T15:15:59.804Z,22.20
2023-04-15T15:18:27.211Z,21.88
2023-04-15T15:20:54.657Z,22.26
2023-04-15T15:23:22.148Z,22.35
2023-04-15T15:25:50.889Z,22.28
2023-04-15T15:28:18.194Z,22.55
2023-04-15T15:30:45.712Z,22.43
2023-04-15T15:33:13.061Z,22.45
2023-04-15T15:35:41.271Z,22.57
2023-04-15T15:38:11.509Z,22.75
2023-04-15T15:40:39.234Z,23.20
2023-04-15T15:43:07.924Z,22.88
2023-04-15T15:45:35.935Z,22.80
2023-04-15T15:48:03.765Z,23.10
2023-04-15T15:50:31.198Z,23.07
2023-04-15T15:52:59.008Z,23.24
2023-04-15T15:55:27.361Z,22.95
2023-04-15T15:57:54.623Z,23.33
2023-04-15T16:00:23.417Z,23.51
2023-04-15T16:03:06.109Z,23.41
2023-04-15T16:05:35.192Z,23.55
2023-04-15T16:08:02.611Z,23.50
2023-04-15T16:10:30.103Z,23.52
2023-04-15T16:12:57.389Z,23.66
2023-04-15T16:15:26.797Z,23.64
2023-04-15T16:17:54.387Z,23.58
2023-04-15T16:20:21.931Z,23.77
2023-04-15T16:22:51.181Z,23.50
2023-04-15T16:25:19.057Z,23.88
2023-04-15T16:27:59.397Z,23.76
2023-04-15T16:30:32.261Z,23.94
2023-04-15T16:32:59.959Z,24.04
2023-04-15T16:35:27.473Z,24.19
2023-04-15T16:37:54.870Z,24.32
2023-04-15T16:40:22.227Z,24.42
2023-04-15T16:42:50.372Z,24.21
2023-04-15T16:45:17.773Z,24.60
2023-04-15T16:47:46.827Z,24.31
2023-04-15T16:50:14.758Z,24.51
2023-04-15T16:52:42.217Z,24.59
2023-04-15T16:55:09.570Z,24.52
2023-04-15T16:57:48.783Z,24.82
2023-04-15T17:00:24.450Z,24.89
2023-04-15T17:02:53.387Z,25.01
2023-04-15T17:05:21.168Z,25.17
2023-04-15T17:07:48.710Z,25.16
2023-04-15T17:10:16.351Z,25.41
2023-04-15T17:12:43.898Z,25.33
2023-04-15T17:15:11.584Z,25.45
2023-04-15T17:17:45.890Z,25.49
2023-04-15T17:20:17.465Z,25.79
2023-04-15T17:22:46.790Z,25.52
2023-04-15T17:25:16.357Z,25.91
2023-04-15T17:27:49.723Z,26.13
2023-04-15T17:30:23.651Z,25.97
2023-04-15T17:33:56.508Z,26.12
2023-04-15T17:36:23.141Z,26.64
2023-04-15T17:39:10.806Z,26.31
2023-04-15T17:41:58.205Z,26.57
2023-04-15T17:44:25.540Z,26.81
2023-04-15T17:47:12.773Z,26.65
2023-04-15T17:50:00.145Z,26.87
2023-04-15T17:52:48.885Z,26.86
2023-04-15T17:55:36.774Z,26.84
2023-04-15T17:58:24.400Z,27.33
2023-04-15T18:01:11.638Z,27.22
2023-04-15T18:03:59.138Z,27.79
2023-04-15T18:06:46.485Z,27.90
2023-04-15T18:09:35.293Z,27.53
2023-04-15T18:12:22.668Z,28.03
2023-04-15T18:15:11.804Z,27.96
2023-04-15T18:17:59.254Z,28.62
2023-04-15T18:20:26.611Z,28.10
2023-04-15T18:22:55.790Z,28.52
2023-04-15T18:25:24.565Z,28.30
2023-04-15T18:27:51.966Z,28.46
2023-04-15T18:30:19.655Z,28.79
2023-04-15T18:32:47.106Z,28.46
2023-04-15T18:35:14.390Z,28.20
2023-04-15T18:37:41.694Z,28.83
2023-04-15T18:40:09.993Z,28.91
2023-04-15T18:42:38.656Z,29.56
2023-04-15T18:45:07.193Z,29.01
2023-04-15T18:47:34.608Z,29.14
2023-04-15T18:50:02.056Z,29.27
2023-04-15T18:52:31.562Z,29.85
2023-04-15T18:54:58.887Z,29.12
2023-04-15T18:57:31.343Z,29.84
2023-04-15T19:00:02.201Z,30.54
2023-04-15T19:02:33.926Z,30.09
2023-04-15T19:05:04.297Z,30.53
2023-04-15T19:07:32.868Z,30.35
2023-04-15T19:10:00.306Z,29.70
2023-04-15T19:12:27.930Z,29.53
2023-04-15T19:14:55.284Z,29.63
2023-04-15T19:17:24.094Z,30.19
2023-04-15T19:19:51.612Z,30.19
2023-04-15T19:22:19.264Z,30.68
2023-04-15T19:24:46.645Z,30.53
2023-04-15T19:27:14.187Z,30.54
2023-04-15T19:29:41.661Z,30.25
2023-04-15T19:32:09.063Z,30.27
2023-04-15T19:34:37.724Z,30.40
2023-04-15T19:37:05.102Z,30.14
2023-04-15T19:39:32.421Z,30.89
2023-04-15T19:42:00.209Z,31.19
2023-04-15T19:44:28.083Z,31.06
2023-04-15T19:46:55.669Z,31.39
2023-04-15T19:49:23.074Z,31.12
2023-04-15T19:51:51.909Z,30.90
2023-04-15T19:54:19.338Z,31.40
2023-04-15T19:56:46.996Z,31.06
2023-04-15T19:59:14.446Z,30.99
2023-04-15T20:01:41.980Z,31.33
2023-04-15T20:04:09.763Z,30.96
2023-04-15T20:06:37.280Z,31.06
2023-04-15T20:09:07.053Z,31.62
2023-04-15T20:12:09.326Z,32.14
2023-04-15T20:14:25.161Z,31.70
2023-04-15T20:16:52.633Z,31.58
2023-04-15T20:19:19.966Z,31.89
2023-04-15T20:21:47.310Z,31.19
2023-04-15T20:24:16.310Z,32.50
2023-04-15T20:26:43.656Z,32.48
2023-04-15T20:29:11.170Z,31.98
2023-04-15T20:31:38.777Z,32.13
2023-04-15T20:34:06.462Z,32.22
2023-04-15T20:36:34.123Z,32.66
2023-04-15T20:39:01.739Z,32.22
2023-04-15T20:41:30.656Z,32.13
2023-04-15T20:43:58.024Z,32.09
2023-04-15T20:46:27.345Z,31.73
2023-04-15T20:48:55.845Z,32.34
2023-04-15T20:51:23.125Z,31.95
2023-04-15T20:53:50.551Z,32.30
2023-04-15T20:56:17.930Z,32.02
2023-04-15T20:58:46.815Z,32.25
2023-04-15T21:01:14.633Z,33.01
2023-04-15T21:03:42.791Z,32.23
2023-04-15T21:06:10.176Z,32.47
2023-04-15T21:08:37.479Z,32.34
2023-04-15T21:11:04.771Z,33.45
2023-04-15T21:13:32.161Z,33.53
2023-04-15T21:16:01.130Z,33.96
2023-04-15T21:18:28.516Z,33.78
2023-04-15T21:20:59.385Z,33.91
2023-04-15T21:23:28.693Z,33.36
2023-04-15T21:25:56.668Z,33.72
2023-04-15T21:28:23.921Z,33.80
2023-04-15T21:30:51.247Z,33.60
2023-04-15T21:33:20.572Z,33.78
2023-04-15T21:35:48.227Z,34.21
2023-04-15T21:38:15.510Z,34.23
2023-04-15T21:40:42.912Z,33.63
2023-04-15T21:43:10.506Z,33.79
2023-04-15T21:45:43.098Z,34.14
2023-04-15T21:48:31.850Z,34.30
2023-04-15T21:50:59.658Z,33.82
2023-04-15T21:53:27.280Z,34.12
2023-04-15T21:55:54.986Z,34.30
2023-04-15T21:58:22.494Z,34.10
2023-04-15T22:00:49.931Z,34.34
2023-04-15T22:03:17.574Z,33.67
2023-04-15T22:06:06.271Z,34.35
2023-04-15T22:08:41.661Z,33.52
2023-04-15T22:11:23.136Z,34.05
2023-04-15T22:13:50.623Z,34.29
2023-04-15T22:16:18.207Z,34.20
2023-04-15T22:18:45.639Z,34.38
2023-04-15T22:21:14.585Z,33.63
2023-04-15T22:23:42.004Z,34.73
2023-04-15T22:26:09.249Z,34.82
2023-04-15T22:28:36.923Z,34.77
2023-04-15T22:31:04.236Z,34.90
2023-04-15T22:33:31.812Z,34.86
2023-04-15T22:35:59.221Z,34.18
2023-04-15T22:38:28.190Z,34.89
2023-04-15T22:40:55.828Z,34.73
2023-04-15T22:43:23.175Z,34.44
2023-04-15T22:45:50.834Z,34.25
2023-04-15T22:48:18.530Z,34.17
2023-04-15T22:50:46.270Z,34.69
2023-04-15T22:53:14.953Z,34.88
2023-04-15T22:55:47.086Z,34.23
2023-04-15T22:58:15.263Z,34.87
2023-04-15T23:00:43.018Z,34.79
2023-04-15T23:03:11.062Z,35.34
2023-04-15T23:05:40.144Z,34.40
2023-04-15T23:08:08.223Z,35.18
2023-04-15T23:10:35.708Z,35.13
2023-04-15T23:13:04.445Z,34.59
2023-04-15T23:15:31.929Z,34.61
2023-04-15T23:18:00.591Z,35.13
2023-04-15T23:20:28.080Z,35.18
2023-04-15T23:22:55.499Z,35.76
2023-04-15T23:25:23.217Z,35.27
2023-04-15T23:27:50.827Z,35.16
2023-04-15T23:30:19.809Z,35.73
2023-04-15T23:32:47.238Z,35.83
2023-04-15T23:35:14.569Z,35.46
2023-04-15T23:37:42.106Z,36.07
2023-04-15T23:40:10.658Z,36.38
2023-04-15T23:42:38.077Z,36.44
2023-04-15T23:45:06.129Z,35.95
2023-04-15T23:47:35.265Z,35.82
2023-04-15T23:50:02.663Z,36.21
2023-04-15T23:52:30.877Z,36.11
2023-04-15T23:54:58.372Z,36.56
2023-04-15T23:57:26.084Z,35.84
2023-04-15T23:59:53.823Z,36.44
